Impacts METAR Board
IDs:

KACT - Waco Rgnl, TX, US

Updated at: 0300 UTC 06 Dec 2019
Potential Impact None Slight Moderate High
Time 05/15Z 05/16Z 05/17Z 05/18Z 05/19Z 05/20Z 05/21Z 05/22Z 05/23Z 06/00Z 06/01Z 06/02Z 06/03Z
Temp56 62 68 70 69 72 73 69 68 67 66 65 66
Dewpt47 50 57 57 58 59 58 58 58 57 57 57 58
Altim30.02 30.04 30.02 29.98 29.94 29.91 29.89 29.89 29.89 29.89 29.90 29.91 29.93
VIS10 10 10 10 10 10 10 10 10 10 10 10 10
CIG-- -- -- -- -- -- -- -- -- -- -- -- --
CoverCLRCLRCLRCLRCLRCLRCLRCLRCLRCLRCLRCLRCLR
FltCatVFRVFRVFRVFRVFRVFRVFRVFRVFRVFRVFRVFRVFR
WX--------------------------
WDir150170190180170170170170180170170170190
WSpd9 10 16 16 16 15 17 16 13 12 12 11 12
WGst-- -- 21 23 -- -- -- -- -- -- -- -- --
Raw hourly METARs
KACT 051451Z 15009KT 10SM CLR 13/08 A3002 RMK AO2 SLP164 T01330083 51006 $
KACT 051551Z 17010KT 10SM CLR 17/10 A3004 RMK AO2 SLP168 T01670100 $
KACT 051651Z 19016G21KT 10SM CLR 20/14 A3002 RMK AO2 SLP161 T02000139 $
KACT 051751Z 18016G23KT 10SM CLR 21/14 A2998 RMK AO2 SLP146 T02110139 10217 20072 58015 $
KACT 051851Z 17016KT 10SM CLR 21/14 A2994 RMK AO2 SLP136 T02060144 $
KACT 051951Z 17015KT 10SM CLR 22/15 A2991 RMK AO2 SLP124 T02220150 $
KACT 052051Z 17017KT 10SM CLR 23/14 A2989 RMK AO2 SLP118 T02280144 56028 $
KACT 052151Z 17016KT 10SM CLR 21/14 A2989 RMK AO2 SLP118 T02060144 /
KACT 052251Z 18013KT 10SM CLR 20/14 A2989 RMK AO2 SLP117 T02000144 $
KACT 052351Z 17012KT 10SM CLR 19/14 A2989 RMK AO2 SLP120 T01940139 10233 20194 53001 $
KACT 060051Z 17012KT 10SM CLR 19/14 A2990 RMK AO2 SLP122 T01890139 $
KACT 060151Z 17011KT 10SM CLR 18/14 A2991 RMK AO2 SLP125 T01830139 $
KACT 060251Z 19012KT 10SM CLR 19/14 A2993 RMK AO2 SLP130 T01890144 53010 $